Tortola's Pride — HO-3796 — position and weather

sailwx.info

Track history (hours):
 
Tides and Currents Weather Stations Pressure Air Temp Water Temp Dewpoint Dewpoint Depression Visibility Wind Speed Wind Dir Waves Ship Positions

Tortola's Pride

Last reported at 2016-Jun-25 17:17 UTC. Time now 2016-Jun-27 09:42 UTC.
Position N 18°25' W 064°36'.

Length 49 m; draft 2.8 m.

Type: Cargo ship. MMSI: 355921000.

Date/timePositionNaut miles runAvg speedWind from/ knotsBaromVisibWave heightAir tempDewpointWater temp
2016-Jun-25 17:17N 18°25' W 064°36'6 8.2
2016-Jun-25 16:33N 18°22' W 064°42'9 8.7
2016-Jun-25 15:33N 18°25' W 064°51'68 8.3
2016-Jun-25 07:20N 18°30' W 066°03'4 5.3
2016-Jun-25 06:33N 18°28' W 066°06'0 0.0
2016-Jun-24 23:12N 18°28' W 066°06'0 0.0
2016-Jun-24 22:28N 18°28' W 066°06'0 0.0
2016-Jun-24 21:33N 18°28' W 066°06'0 0.0
2016-Jun-24 20:33N 18°28' W 066°06'0 0.0
2016-Jun-24 19:33N 18°28' W 066°06'0 0.0
2016-Jun-24 18:33N 18°28' W 066°06'0 0.0
2016-Jun-24 17:33N 18°28' W 066°06'0 0.0
2016-Jun-24 16:33N 18°28' W 066°06'0 0.0
2016-Jun-24 15:33N 18°28' W 066°06'0 0.0
2016-Jun-24 14:33N 18°28' W 066°06'1 1.2
2016-Jun-24 13:33N 18°28' W 066°07'80 8.9
2016-Jun-24 04:33N 18°23' W 064°43'  
2016-Jun-21 14:21N 18°25' W 064°36'63 9.1
2016-Jun-21 07:27N 18°11' W 063°32'26 9.0
2016-Jun-21 04:33N 18°05' W 063°05'0 0.0
2016-Jun-21 03:20N 18°05' W 063°05'0 0.0
2016-Jun-21 02:33N 18°05' W 063°05'1 0.5
2016-Jun-21 01:28N 18°05' W 063°06'7 7.4
2016-Jun-21 00:30N 18°11' W 063°10'1 0.1
2016-Jun-20 13:12N 18°12' W 063°10'7 9.3
2016-Jun-20 12:25N 18°13' W 063°18'60 7.6
2016-Jun-20 04:28N 18°22' W 064°20'7 6.2
2016-Jun-20 03:16N 18°24' W 064°28'6 8.3
2016-Jun-20 02:33N 18°24' W 064°34'2 0.1
2016-Jun-18 21:17N 18°25' W 064°36'6 8.2
2016-Jun-18 20:33N 18°23' W 064°42'9 8.7
2016-Jun-18 19:32N 18°25' W 064°51'70 8.8
2016-Jun-18 11:33N 18°29' W 066°05'2 2.0
2016-Jun-18 10:28N 18°28' W 066°06'0 0.0
2016-Jun-18 09:24N 18°28' W 066°06'0 0.0
2016-Jun-18 08:33N 18°28' W 066°06'0 0.0
2016-Jun-18 07:33N 18°28' W 066°06'0 0.0
2016-Jun-18 06:33N 18°28' W 066°06'0 0.0
2016-Jun-18 05:32N 18°28' W 066°06'0 0.0
2016-Jun-18 04:32N 18°28' W 066°06'0 0.0
2016-Jun-18 03:31N 18°28' W 066°06'0 0.0
2016-Jun-18 02:31N 18°28' W 066°06'0 0.0
2016-Jun-18 01:22N 18°28' W 066°06'0 0.0
2016-Jun-18 00:33N 18°28' W 066°06'0 0.0
2016-Jun-17 23:33N 18°28' W 066°06'0 0.0
2016-Jun-17 22:33N 18°28' W 066°06'0 0.0
2016-Jun-17 21:33N 18°28' W 066°06'0 0.0
2016-Jun-17 20:33N 18°28' W 066°06'0 0.0
2016-Jun-17 19:33N 18°28' W 066°06'0 0.0
2016-Jun-17 18:34N 18°28' W 066°06'0 0.0
2016-Jun-17 17:33N 18°28' W 066°06'0 0.0
2016-Jun-17 16:30N 18°28' W 066°06'0 0.0
2016-Jun-17 15:31N 18°28' W 066°06'0 0.0
2016-Jun-17 14:31N 18°28' W 066°06'0 0.0
2016-Jun-17 13:31N 18°28' W 066°06'0 0.0
2016-Jun-17 12:33N 18°28' W 066°06'71 8.8
2016-Jun-17 04:33N 18°25' W 064°52'10 9.9
2016-Jun-17 03:33N 18°22' W 064°42'6 0.2
2016-Jun-15 20:33N 18°25' W 064°36'  
Track history (hours):
 
Tides and Currents Weather Stations Pressure Air Temp Water Temp Dewpoint Dewpoint Depression Visibility Wind Speed Wind Dir Waves Ship Positions

Tortola's Pride

Last reported at 2016-Jun-25 17:17 UTC. Time now 2016-Jun-27 09:42 UTC.
Position N 18°25' W 064°36'.

Length 49 m; draft 2.8 m.

Type: Cargo ship. MMSI: 355921000.

Date/timePositionNaut miles runAvg speedWind from/ knotsBaromVisibWave heightAir tempDewpointWater temp
2016-Jun-25 17:17N 18°25' W 064°36'6 8.2
2016-Jun-25 16:33N 18°22' W 064°42'9 8.7
2016-Jun-25 15:33N 18°25' W 064°51'68 8.3
2016-Jun-25 07:20N 18°30' W 066°03'4 5.3
2016-Jun-25 06:33N 18°28' W 066°06'0 0.0
2016-Jun-24 23:12N 18°28' W 066°06'0 0.0
2016-Jun-24 22:28N 18°28' W 066°06'0 0.0
2016-Jun-24 21:33N 18°28' W 066°06'0 0.0
2016-Jun-24 20:33N 18°28' W 066°06'0 0.0
2016-Jun-24 19:33N 18°28' W 066°06'0 0.0
2016-Jun-24 18:33N 18°28' W 066°06'0 0.0
2016-Jun-24 17:33N 18°28' W 066°06'0 0.0
2016-Jun-24 16:33N 18°28' W 066°06'0 0.0
2016-Jun-24 15:33N 18°28' W 066°06'0 0.0
2016-Jun-24 14:33N 18°28' W 066°06'1 1.2
2016-Jun-24 13:33N 18°28' W 066°07'80 8.9
2016-Jun-24 04:33N 18°23' W 064°43'  
2016-Jun-21 14:21N 18°25' W 064°36'63 9.1
2016-Jun-21 07:27N 18°11' W 063°32'26 9.0
2016-Jun-21 04:33N 18°05' W 063°05'0 0.0
2016-Jun-21 03:20N 18°05' W 063°05'0 0.0
2016-Jun-21 02:33N 18°05' W 063°05'1 0.5
2016-Jun-21 01:28N 18°05' W 063°06'7 7.4
2016-Jun-21 00:30N 18°11' W 063°10'1 0.1
2016-Jun-20 13:12N 18°12' W 063°10'7 9.3
2016-Jun-20 12:25N 18°13' W 063°18'60 7.6
2016-Jun-20 04:28N 18°22' W 064°20'7 6.2
2016-Jun-20 03:16N 18°24' W 064°28'6 8.3
2016-Jun-20 02:33N 18°24' W 064°34'2 0.1
2016-Jun-18 21:17N 18°25' W 064°36'6 8.2
2016-Jun-18 20:33N 18°23' W 064°42'9 8.7
2016-Jun-18 19:32N 18°25' W 064°51'70 8.8
2016-Jun-18 11:33N 18°29' W 066°05'2 2.0
2016-Jun-18 10:28N 18°28' W 066°06'0 0.0
2016-Jun-18 09:24N 18°28' W 066°06'0 0.0
2016-Jun-18 08:33N 18°28' W 066°06'0 0.0
2016-Jun-18 07:33N 18°28' W 066°06'0 0.0
2016-Jun-18 06:33N 18°28' W 066°06'0 0.0
2016-Jun-18 05:32N 18°28' W 066°06'0 0.0
2016-Jun-18 04:32N 18°28' W 066°06'0 0.0
2016-Jun-18 03:31N 18°28' W 066°06'0 0.0
2016-Jun-18 02:31N 18°28' W 066°06'0 0.0
2016-Jun-18 01:22N 18°28' W 066°06'0 0.0
2016-Jun-18 00:33N 18°28' W 066°06'0 0.0
2016-Jun-17 23:33N 18°28' W 066°06'0 0.0
2016-Jun-17 22:33N 18°28' W 066°06'0 0.0
2016-Jun-17 21:33N 18°28' W 066°06'0 0.0
2016-Jun-17 20:33N 18°28' W 066°06'0 0.0
2016-Jun-17 19:33N 18°28' W 066°06'0 0.0
2016-Jun-17 18:34N 18°28' W 066°06'0 0.0
2016-Jun-17 17:33N 18°28' W 066°06'0 0.0
2016-Jun-17 16:30N 18°28' W 066°06'0 0.0
2016-Jun-17 15:31N 18°28' W 066°06'0 0.0
2016-Jun-17 14:31N 18°28' W 066°06'0 0.0
2016-Jun-17 13:31N 18°28' W 066°06'0 0.0
2016-Jun-17 12:33N 18°28' W 066°06'71 8.8
2016-Jun-17 04:33N 18°25' W 064°52'10 9.9
2016-Jun-17 03:33N 18°22' W 064°42'6 0.2
2016-Jun-15 20:33N 18°25' W 064°36'  

Dump ship's entire track history